Time;durP1;ratioP1;P1;durP2;ratioP2;P2;SDS_P1;SDS_P2;PMS_P1;PMS_P2;Temp;Humidity;BMP_temperature;BMP_pressure;BME280_temperature;BME280_humidity;BME280_pressure;Samples;Min_cycle;Max_cycle;Signal;HPM_P1;HPM_P2
2022/04/24 00:01:08;;;;;;;6.72;5.00;;;18.90;75.00;;;;;;5141845;27;20046;-65
2022/04/24 00:03:34;;;;;;;7.88;4.88;;;18.80;72.10;;;;;;5157857;27;20090;-64
2022/04/24 00:06:00;;;;;;;6.60;4.88;;;18.90;74.70;;;;;;5175880;27;20473;-65
2022/04/24 00:08:25;;;;;;;7.97;5.10;;;19.10;72.20;;;;;;5174937;27;20565;-65
2022/04/24 00:10:51;;;;;;;6.65;4.57;;;18.70;74.70;;;;;;5158321;27;20403;-66
2022/04/24 00:13:17;;;;;;;7.03;5.05;;;18.70;74.90;;;;;;5177182;27;20360;-65
2022/04/24 00:15:42;;;;;;;8.07;4.60;;;18.80;72.00;;;;;;5175787;27;20042;-65
2022/04/24 00:18:08;;;;;;;7.22;5.15;;;18.60;74.90;;;;;;5175873;27;20038;-65
2022/04/24 00:20:34;;;;;;;6.35;4.60;;;18.80;71.80;;;;;;5157482;27;20046;-65
2022/04/24 00:23:00;;;;;;;6.60;4.47;;;18.90;74.90;;;;;;5176839;27;20069;-65
2022/04/24 00:25:26;;;;;;;7.75;4.93;;;19.00;75.00;;;;;;5139799;27;20049;-66
2022/04/24 00:27:52;;;;;;;6.80;4.60;;;18.70;75.10;;;;;;5157853;27;20109;-65
2022/04/24 00:30:17;;;;;;;6.13;4.43;;;18.60;74.90;;;;;;5138669;27;21724;-65
2022/04/24 00:32:43;;;;;;;5.95;4.55;;;18.80;71.80;;;;;;5139401;27;20041;-65
2022/04/24 00:35:09;;;;;;;7.35;4.80;;;18.50;75.00;;;;;;5157481;27;20050;-65
2022/04/24 00:37:34;;;;;;;6.97;4.93;;;18.50;74.70;;;;;;5175856;27;20034;-66
2022/04/24 00:40:00;;;;;;;9.73;4.90;;;18.60;74.80;;;;;;5141495;27;20042;-67
2022/04/24 00:42:26;;;;;;;6.55;4.63;;;18.60;74.90;;;;;;5157671;27;20106;-65
2022/04/24 00:44:52;;;;;;;7.28;4.82;;;;;;;;;;5158045;27;20101;-64
2022/04/24 00:47:19;;;;;;;7.72;4.78;;;18.50;70.00;;;;;;5157042;27;20117;-65
2022/04/24 00:49:45;;;;;;;9.98;5.07;;;18.70;74.90;;;;;;5137996;27;20054;-66
2022/04/24 00:52:11;;;;;;;6.43;4.63;;;18.80;75.40;;;;;;5176524;27;20030;-65
2022/04/24 00:54:37;;;;;;;7.03;4.75;;;18.60;74.80;;;;;;5176135;27;20394;-65
2022/04/24 00:57:06;;;;;;;7.97;4.68;;;18.60;75.00;;;;;;5122288;27;20046;-65
2022/04/24 00:59:31;;;;;;;6.95;5.00;;;18.80;74.90;;;;;;5155766;27;20615;-64
2022/04/24 01:01:57;;;;;;;6.57;4.65;;;18.80;75.00;;;;;;5138840;27;20041;-65
2022/04/24 01:04:23;;;;;;;6.70;4.80;;;18.50;72.10;;;;;;5157434;27;20034;-64
2022/04/24 01:06:49;;;;;;;6.57;4.93;;;18.80;74.90;;;;;;5157564;27;20038;-65
2022/04/24 01:09:19;;;;;;;6.78;4.90;;;18.70;75.20;;;;;;5155506;27;20372;-65
2022/04/24 01:11:47;;;;;;;9.10;5.07;;;18.70;73.80;;;;;;5121698;27;20034;-64
2022/04/24 01:14:13;;;;;;;7.25;5.07;;;18.70;75.00;;;;;;5122810;27;20117;-67
2022/04/24 01:16:38;;;;;;;6.65;4.90;;;18.70;72.10;;;;;;5157923;27;20121;-65
2022/04/24 01:19:05;;;;;;;7.55;5.10;;;18.80;75.10;;;;;;5139467;27;20483;-66
2022/04/24 01:21:31;;;;;;;7.93;5.20;;;18.50;74.80;;;;;;5138569;27;20106;-66
2022/04/24 01:23:57;;;;;;;6.85;4.80;;;18.60;74.80;;;;;;5139741;27;20081;-64
2022/04/24 01:26:23;;;;;;;7.20;5.03;;;18.80;75.00;;;;;;5139761;27;20442;-66
2022/04/24 01:28:48;;;;;;;7.30;4.85;;;18.70;71.90;;;;;;5139848;27;20042;-65
2022/04/24 01:31:14;;;;;;;6.82;5.13;;;18.50;75.00;;;;;;5122384;27;20070;-65
2022/04/24 01:33:40;;;;;;;6.70;4.85;;;18.30;75.50;;;;;;5113587;28;20052;-66
2022/04/24 01:36:05;;;;;;;6.80;4.82;;;18.60;75.20;;;;;;5112399;28;20523;-64
2022/04/24 01:38:31;;;;;;;6.57;4.80;;;18.60;75.00;;;;;;5112623;28;20502;-65
2022/04/24 01:40:57;;;;;;;7.00;4.40;;;18.80;75.20;;;;;;5112600;28;20051;-64
2022/04/24 01:43:23;;;;;;;6.68;4.90;;;18.80;75.30;;;;;;5123009;28;20418;-64
2022/04/24 01:45:48;;;;;;;9.15;5.43;;;18.60;75.50;;;;;;5115693;28;20051;-65
2022/04/24 01:48:14;;;;;;;6.82;5.15;;;18.30;72.30;;;;;;5115120;28;20403;-66
2022/04/24 01:50:40;;;;;;;6.32;4.85;;;18.50;75.10;;;;;;5132715;28;20087;-66
2022/04/24 01:53:05;;;;;;;7.20;4.93;;;18.60;75.20;;;;;;5131555;28;20127;-66
2022/04/24 01:55:31;;;;;;;8.10;5.25;;;18.60;75.20;;;;;;5079959;28;20051;-65
2022/04/24 01:57:57;;;;;;;7.78;5.10;;;18.50;75.20;;;;;;5095175;28;20040;-65
2022/04/24 02:00:23;;;;;;;6.82;4.97;;;18.40;72.30;;;;;;5112994;28;20138;-65
2022/04/24 02:02:49;;;;;;;7.93;5.05;;;18.50;74.50;;;;;;5112314;28;20043;-64
2022/04/24 02:05:15;;;;;;;7.55;4.55;;;18.80;72.60;;;;;;5110179;28;20054;-65
2022/04/24 02:07:40;;;;;;;6.93;4.82;;;18.40;75.10;;;;;;5098591;28;20400;-66
2022/04/24 02:10:06;;;;;;;8.95;5.57;;;18.40;75.20;;;;;;5132264;28;20130;-66
2022/04/24 02:12:32;;;;;;;8.38;5.38;;;18.30;71.80;;;;;;5132546;28;20055;-66
2022/04/24 02:14:58;;;;;;;6.70;4.68;;;18.50;75.30;;;;;;5113247;28;20043;-65
2022/04/24 02:17:23;;;;;;;7.40;4.82;;;18.60;72.60;;;;;;5131546;28;20047;-67
2022/04/24 02:19:49;;;;;;;7.50;4.88;;;18.50;74.30;;;;;;5128671;28;20044;-66
2022/04/24 02:22:15;;;;;;;8.45;5.05;;;18.30;75.20;;;;;;5082936;28;20040;-65
2022/04/24 02:24:40;;;;;;;7.05;4.97;;;18.40;75.10;;;;;;5098351;27;20048;-66
2022/04/24 02:27:06;;;;;;;7.68;4.80;;;18.60;75.40;;;;;;5118161;27;20150;-65
2022/04/24 02:29:33;;;;;;;6.78;4.60;;;18.50;75.70;;;;;;5136299;27;20063;-65
2022/04/24 02:31:59;;;;;;;9.43;5.47;;;18.50;75.20;;;;;;5125341;27;20065;-65
2022/04/24 02:34:26;;;;;;;9.70;5.07;;;18.30;75.20;;;;;;5142839;27;20058;-66
2022/04/24 02:36:52;;;;;;;6.88;4.82;;;18.40;75.10;;;;;;5142044;27;20046;-63
2022/04/24 02:39:18;;;;;;;7.88;5.30;;;18.40;75.20;;;;;;5177194;27;20046;-64
2022/04/24 02:41:44;;;;;;;7.22;4.70;;;18.40;75.70;;;;;;5160041;27;20042;-64
2022/04/24 02:44:10;;;;;;;7.32;5.05;;;18.40;72.40;;;;;;5178960;27;20174;-64
2022/04/24 02:46:35;;;;;;;6.65;4.60;;;18.40;75.20;;;;;;5158655;27;20488;-65
2022/04/24 02:49:01;;;;;;;7.00;4.68;;;18.50;75.50;;;;;;5166308;27;20549;-63
2022/04/24 02:51:27;;;;;;;6.60;4.70;;;18.50;75.40;;;;;;5157956;27;20037;-63
2022/04/24 02:53:53;;;;;;;7.35;5.00;;;18.30;75.20;;;;;;5157886;27;20035;-64
2022/04/24 02:56:18;;;;;;;6.70;4.80;;;18.30;72.40;;;;;;5163596;27;20045;-63
2022/04/24 02:58:44;;;;;;;7.43;4.95;;;18.10;75.10;;;;;;5176992;27;20447;-64
2022/04/24 03:01:11;;;;;;;6.75;4.72;;;18.10;72.40;;;;;;5178662;27;20124;-63
2022/04/24 03:03:38;;;;;;;7.70;4.40;;;18.50;75.40;;;;;;5159631;27;20049;-63
2022/04/24 03:06:04;;;;;;;6.40;4.53;;;18.30;75.60;;;;;;5160040;27;20375;-64
2022/04/24 03:08:30;;;;;;;7.07;5.05;;;18.30;72.60;;;;;;5137305;27;20050;-64
2022/04/24 03:10:56;;;;;;;7.78;4.90;;;18.30;75.30;;;;;;5157466;27;20050;-63
2022/04/24 03:13:22;;;;;;;7.93;4.72;;;18.40;72.70;;;;;;5145061;27;20052;-64
2022/04/24 03:15:47;;;;;;;6.78;4.60;;;18.30;75.30;;;;;;5159725;27;20097;-63
2022/04/24 03:18:13;;;;;;;7.80;4.82;;;18.40;75.30;;;;;;5176341;27;20479;-62
2022/04/24 03:20:39;;;;;;;7.53;4.57;;;18.30;75.60;;;;;;5158540;27;20479;-64
2022/04/24 03:23:04;;;;;;;7.40;5.18;;;18.20;74.00;;;;;;5159649;27;20598;-63
2022/04/24 03:25:30;;;;;;;11.25;5.05;;;;;;;;;;5159679;27;20038;-64
2022/04/24 03:27:56;;;;;;;6.35;4.47;;;18.10;75.30;;;;;;5158932;27;20487;-64
2022/04/24 03:30:22;;;;;;;9.82;5.72;;;18.30;75.60;;;;;;5157368;27;20045;-63
2022/04/24 03:32:48;;;;;;;8.02;4.72;;;18.20;75.40;;;;;;5130637;27;20047;-64
2022/04/24 03:35:14;;;;;;;7.63;4.78;;;18.20;75.60;;;;;;5159370;27;20087;-64
2022/04/24 03:37:40;;;;;;;5.97;4.13;;;18.10;72.50;;;;;;5159418;27;20372;-63
2022/04/24 03:40:06;;;;;;;6.25;4.22;;;18.20;75.50;;;;;;5139979;27;20022;-63
2022/04/24 03:42:35;;;;;;;7.78;4.40;;;18.20;75.60;;;;;;5177725;27;20550;-64
2022/04/24 03:45:01;;;;;;;6.57;4.22;;;18.00;75.70;;;;;;5177753;27;20038;-64
2022/04/24 03:47:27;;;;;;;9.25;4.40;;;18.00;75.60;;;;;;5136910;27;20097;-63
2022/04/24 03:49:53;;;;;;;7.00;4.60;;;18.10;75.50;;;;;;5158981;27;20417;-64
2022/04/24 03:52:19;;;;;;;6.55;4.53;;;18.10;75.50;;;;;;5123021;27;20394;-63
2022/04/24 03:54:44;;;;;;;7.28;4.20;;;18.00;75.30;;;;;;5158571;27;20049;-63
2022/04/24 03:57:11;;;;;;;6.75;4.35;;;18.40;73.90;;;;;;5177356;27;20094;-64
2022/04/24 03:59:37;;;;;;;6.78;4.55;;;18.10;75.80;;;;;;5158247;27;20050;-64
2022/04/24 04:02:03;;;;;;;7.90;4.88;;;18.20;75.70;;;;;;5157040;27;20106;-64
2022/04/24 04:04:29;;;;;;;6.95;4.57;;;18.10;75.60;;;;;;5157164;27;20121;-64
2022/04/24 04:06:55;;;;;;;7.22;4.60;;;18.20;75.70;;;;;;5123988;27;20487;-64
2022/04/24 04:09:20;;;;;;;8.10;4.70;;;17.90;72.70;;;;;;5177301;27;20049;-64
2022/04/24 04:11:46;;;;;;;7.68;4.68;;;18.00;75.70;;;;;;5176230;27;20129;-63
2022/04/24 04:14:12;;;;;;;7.05;4.80;;;18.20;73.20;;;;;;5157804;27;20053;-63
2022/04/24 04:16:37;;;;;;;9.52;4.88;;;18.00;73.10;;;;;;5176471;27;20394;-63
2022/04/24 04:19:03;;;;;;;8.85;4.65;;;18.20;76.00;;;;;;5177052;27;20110;-63
2022/04/24 04:21:29;;;;;;;7.30;4.38;;;18.10;73.00;;;;;;5157898;27;20380;-65
2022/04/24 04:23:55;;;;;;;8.05;4.80;;;18.10;76.00;;;;;;5175633;27;20073;-66
2022/04/24 04:26:21;;;;;;;8.07;5.30;;;18.30;76.40;;;;;;5139464;27;20585;-66
2022/04/24 04:28:47;;;;;;;7.57;4.80;;;18.10;76.00;;;;;;5156285;27;20444;-64
2022/04/24 04:31:13;;;;;;;8.70;5.53;;;17.70;75.70;;;;;;5123610;27;20073;-67
2022/04/24 04:33:39;;;;;;;7.88;4.80;;;18.00;75.90;;;;;;5121536;27;20046;-66
2022/04/24 04:36:05;;;;;;;6.85;4.53;;;17.90;76.00;;;;;;5140311;27;20058;-66
2022/04/24 04:38:31;;;;;;;7.63;5.10;;;18.20;76.30;;;;;;5140441;27;20483;-65
2022/04/24 04:40:56;;;;;;;7.78;5.47;;;18.20;76.40;;;;;;5140586;27;20099;-65
2022/04/24 04:43:22;;;;;;;8.13;4.80;;;18.20;76.10;;;;;;5176597;27;20053;-66
2022/04/24 04:45:49;;;;;;;9.07;5.25;;;18.00;76.00;;;;;;5138618;27;20042;-67
2022/04/24 04:48:14;;;;;;;7.35;4.85;;;17.90;76.00;;;;;;5177338;27;20093;-67
2022/04/24 04:50:40;;;;;;;8.63;5.65;;;18.20;76.40;;;;;;5176209;27;20078;-65
2022/04/24 04:53:06;;;;;;;7.82;5.07;;;17.90;73.40;;;;;;5158293;27;20173;-65
2022/04/24 04:55:31;;;;;;;9.55;5.63;;;18.00;75.60;;;;;;5174812;27;20049;-67
2022/04/24 04:57:58;;;;;;;8.43;5.38;;;17.90;76.30;;;;;;5176218;27;20042;-66
2022/04/24 05:00:24;;;;;;;9.07;6.05;;;18.20;76.20;;;;;;5176428;27;20137;-65
2022/04/24 05:02:49;;;;;;;9.27;5.97;;;17.90;76.30;;;;;;5176396;27;20038;-65
2022/04/24 05:05:15;;;;;;;8.60;5.63;;;18.00;76.20;;;;;;5174190;27;20061;-66
2022/04/24 05:07:41;;;;;;;9.57;6.00;;;18.10;73.20;;;;;;5156680;27;20042;-64
2022/04/24 05:10:07;;;;;;;7.63;5.47;;;18.10;73.40;;;;;;5157083;27;20057;-66
2022/04/24 05:12:33;;;;;;;9.30;5.50;;;18.20;76.30;;;;;;5139691;27;20502;-66
2022/04/24 05:15:06;;;;;;;9.00;5.32;;;18.10;76.30;;;;;;5139940;27;20121;-65
2022/04/24 05:17:36;;;;;;;9.00;5.82;;;18.10;73.60;;;;;;5155442;27;20034;-67
2022/04/24 05:20:03;;;;;;;9.70;6.03;;;18.20;76.20;;;;;;5156635;27;20050;-65
2022/04/24 05:22:28;;;;;;;9.18;5.63;;;17.90;73.40;;;;;;5176535;27;20042;-65
2022/04/24 05:24:54;;;;;;;9.10;5.68;;;18.30;75.90;;;;;;5174962;27;20048;-64
2022/04/24 05:27:20;;;;;;;8.27;5.30;;;18.00;73.30;;;;;;5174334;27;20038;-66
2022/04/24 05:29:46;;;;;;;7.78;5.20;;;18.30;76.10;;;;;;5175857;27;20066;-66
2022/04/24 05:32:12;;;;;;;10.13;5.05;;;18.40;76.10;;;;;;5156947;27;20050;-67
2022/04/24 05:34:39;;;;;;;8.45;5.30;;;18.20;73.20;;;;;;5157101;27;20053;-65
2022/04/24 05:37:05;;;;;;;7.53;4.93;;;18.50;75.90;;;;;;5174642;27;20050;-65
2022/04/24 05:39:31;;;;;;;7.53;5.03;;;18.40;75.80;;;;;;5156120;27;20074;-65
2022/04/24 05:41:56;;;;;;;7.03;4.68;;;18.30;75.90;;;;;;5176059;27;20085;-65
2022/04/24 05:44:22;;;;;;;8.25;5.03;;;18.70;75.80;;;;;;5157334;27;20038;-65
2022/04/24 05:46:48;;;;;;;6.60;4.40;;;18.50;75.60;;;;;;5175763;27;20463;-67
2022/04/24 05:49:14;;;;;;;8.27;4.50;;;18.90;75.60;;;;;;5173868;27;20094;-66
2022/04/24 05:51:39;;;;;;;7.07;4.60;;;18.80;75.20;;;;;;5138512;27;20198;-67
2022/04/24 05:54:05;;;;;;;7.15;4.13;;;18.90;72.30;;;;;;5175885;27;20049;-66
2022/04/24 05:56:31;;;;;;;6.80;4.35;;;19.10;74.80;;;;;;5177146;27;20402;-65
2022/04/24 05:58:57;;;;;;;6.80;4.60;;;19.60;75.20;;;;;;5178403;27;20038;-65
2022/04/24 06:01:22;;;;;;;7.10;4.32;;;19.60;74.60;;;;;;5179473;27;20038;-66
2022/04/24 06:03:48;;;;;;;6.82;3.80;;;19.70;74.40;;;;;;5179293;27;20046;-65
2022/04/24 06:06:14;;;;;;;7.28;4.28;;;19.70;71.60;;;;;;5160322;27;20042;-65
2022/04/24 06:08:40;;;;;;;6.95;3.95;;;;;;;;;;5159518;27;20391;-67
2022/04/24 06:11:06;;;;;;;6.40;3.78;;;19.90;69.10;;;;;;5160503;27;20078;-66
2022/04/24 06:13:31;;;;;;;6.68;3.53;;;20.20;73.40;;;;;;5160347;27;20085;-67
2022/04/24 06:15:57;;;;;;;6.65;3.58;;;20.30;73.20;;;;;;5160258;27;20042;-66
2022/04/24 06:18:27;;;;;;;5.30;3.17;;;20.40;72.90;;;;;;5159481;27;20069;-67
2022/04/24 06:20:53;;;;;;;8.00;3.60;;;20.60;72.70;;;;;;5142661;27;20042;-65
2022/04/24 06:23:18;;;;;;;6.25;3.33;;;20.50;69.80;;;;;;5126031;27;20547;-65
2022/04/24 06:25:44;;;;;;;7.35;3.10;;;20.70;72.10;;;;;;5143054;27;20085;-65
2022/04/24 06:28:10;;;;;;;6.90;3.30;;;21.00;72.00;;;;;;5178935;27;20049;-66
2022/04/24 06:30:40;;;;;;;7.43;3.08;;;21.20;71.90;;;;;;5157922;27;20065;-66
2022/04/24 06:33:12;;;;;;;6.72;2.90;;;21.10;67.00;;;;;;5178684;27;20050;-66
2022/04/24 06:35:38;;;;;;;7.45;2.85;;;21.30;71.50;;;;;;5175442;27;20046;-66
2022/04/24 06:38:04;;;;;;;5.40;2.97;;;21.10;71.00;;;;;;5178392;27;20045;-65
2022/04/24 06:40:31;;;;;;;6.53;2.90;;;21.50;71.20;;;;;;5177281;27;20049;-66
2022/04/24 06:43:01;;;;;;;5.80;2.78;;;21.30;68.80;;;;;;5160173;27;20046;-64
2022/04/24 06:45:35;;;;;;;4.82;2.65;;;21.40;70.60;;;;;;5159725;27;20054;-67
2022/04/24 06:48:04;;;;;;;5.43;2.50;;;21.20;68.30;;;;;;5159408;27;20045;-65
2022/04/24 06:50:30;;;;;;;5.22;2.88;;;21.60;70.40;;;;;;5141980;27;20039;-65
2022/04/24 06:53:02;;;;;;;10.27;2.92;;;21.50;70.40;;;;;;5160009;27;20042;-65
2022/04/24 06:55:28;;;;;;;4.80;2.60;;;21.70;70.40;;;;;;5176840;27;20050;-66
2022/04/24 06:57:54;;;;;;;5.55;2.95;;;21.40;67.70;;;;;;5178495;27;20081;-64
2022/04/24 07:00:20;;;;;;;6.63;2.67;;;21.80;70.30;;;;;;5179005;27;20073;-65
2022/04/24 07:02:47;;;;;;;6.60;2.83;;;21.70;69.90;;;;;;5158669;27;20049;-66
2022/04/24 07:05:13;;;;;;;7.45;2.70;;;22.00;67.60;;;;;;5159479;27;20050;-66
2022/04/24 07:07:39;;;;;;;7.22;3.33;;;21.80;70.30;;;;;;5158151;27;20057;-67
2022/04/24 07:10:05;;;;;;;5.80;3.08;;;21.70;67.20;;;;;;5159764;27;20050;-65
2022/04/24 07:12:30;;;;;;;4.60;2.38;;;21.70;69.90;;;;;;5175555;27;20038;-65
2022/04/24 07:14:56;;;;;;;4.45;2.40;;;21.80;67.10;;;;;;5177998;27;20090;-67
2022/04/24 07:17:25;;;;;;;9.85;3.67;;;21.70;67.00;;;;;;5178346;27;20073;-65
2022/04/24 07:19:51;;;;;;;6.22;2.60;;;22.10;70.00;;;;;;5158689;27;20101;-66
2022/04/24 07:22:16;;;;;;;7.22;2.72;;;22.10;69.90;;;;;;5156463;27;20452;-65
2022/04/24 07:24:42;;;;;;;6.57;2.63;;;22.20;69.90;;;;;;5178198;27;20034;-66
2022/04/24 07:27:08;;;;;;;5.45;2.88;;;22.20;69.80;;;;;;5178007;27;20042;-65
2022/04/24 07:29:33;;;;;;;4.97;2.72;;;22.10;69.70;;;;;;5156268;27;20043;-67
2022/04/24 07:31:59;;;;;;;5.80;2.70;;;22.10;69.70;;;;;;5177639;27;20121;-65
2022/04/24 07:34:25;;;;;;;5.20;2.60;;;22.20;66.90;;;;;;5175530;27;20042;-67
2022/04/24 07:36:51;;;;;;;6.03;2.55;;;22.10;69.50;;;;;;5138201;27;20092;-68
2022/04/24 07:39:16;;;;;;;6.20;2.90;;;22.10;66.80;;;;;;5140735;27;20499;-65
2022/04/24 07:41:42;;;;;;;5.60;3.00;;;22.20;69.50;;;;;;5157772;27;20046;-66
2022/04/24 07:44:08;;;;;;;5.40;2.83;;;22.30;66.80;;;;;;5156230;27;20042;-67
2022/04/24 07:46:34;;;;;;;6.38;2.97;;;22.40;66.70;;;;;;5177379;27;20038;-65
2022/04/24 07:49:00;;;;;;;7.57;2.60;;;22.20;66.80;;;;;;5178026;27;20042;-66
2022/04/24 07:51:26;;;;;;;5.35;2.70;;;22.50;69.60;;;;;;5176744;27;20091;-68
2022/04/24 07:53:51;;;;;;;5.00;2.72;;;22.70;69.50;;;;;;5177608;27;20443;-65
2022/04/24 07:56:17;;;;;;;7.10;2.72;;;22.50;69.20;;;;;;5175380;27;20086;-68
2022/04/24 07:58:43;;;;;;;5.85;2.80;;;22.70;69.30;;;;;;5177494;27;20479;-66
2022/04/24 08:01:11;;;;;;;4.97;2.88;;;22.60;66.50;;;;;;5157436;27;20048;-66
2022/04/24 08:03:36;;;;;;;5.35;2.50;;;22.80;66.40;;;;;;5157870;27;20046;-67
2022/04/24 08:06:02;;;;;;;5.82;2.75;;;22.70;66.30;;;;;;5156317;27;20106;-67
2022/04/24 08:08:28;;;;;;;5.82;2.85;;;22.70;66.10;;;;;;5158169;27;20070;-67
2022/04/24 08:11:00;;;;;;;6.78;2.60;;;22.70;69.70;;;;;;5158434;27;20513;-68
2022/04/24 08:13:26;;;;;;;5.43;2.67;;;22.80;66.60;;;;;;5176812;27;20109;-67
2022/04/24 08:15:52;;;;;;;5.50;2.47;;;22.70;66.80;;;;;;5175314;27;20117;-65
2022/04/24 08:18:18;;;;;;;7.80;2.80;;;22.70;66.20;;;;;;5156093;27;20518;-66
2022/04/24 08:20:44;;;;;;;7.50;2.90;;;22.80;66.30;;;;;;5174506;27;20129;-67
2022/04/24 08:23:10;;;;;;;6.93;2.90;;;23.00;69.40;;;;;;5158422;27;20114;-66
2022/04/24 08:25:37;;;;;;;5.75;3.10;;;22.90;69.20;;;;;;5122786;27;20057;-67
2022/04/24 08:28:07;;;;;;;8.10;3.38;;;23.00;66.30;;;;;;5138386;27;20179;-69
2022/04/24 08:30:34;;;;;;;6.32;2.60;;;22.90;69.00;;;;;;5159009;27;20073;-66
2022/04/24 08:32:59;;;;;;;7.32;3.13;;;23.00;68.90;;;;;;5139616;27;20496;-65
2022/04/24 08:35:25;;;;;;;7.22;3.03;;;23.00;66.20;;;;;;5157759;27;20049;-65
2022/04/24 08:37:51;;;;;;;5.50;2.92;;;22.90;68.90;;;;;;5174381;27;20049;-67
2022/04/24 08:40:18;;;;;;;6.45;2.53;;;23.00;66.10;;;;;;5176713;27;20395;-66
2022/04/24 08:42:44;;;;;;;6.40;2.70;;;22.70;68.80;;;;;;5176342;27;20046;-66
2022/04/24 08:45:11;;;;;;;6.65;2.67;;;22.90;66.30;;;;;;5122736;27;20042;-66
2022/04/24 08:47:37;;;;;;;7.75;2.90;;;22.70;68.60;;;;;;5121298;27;20515;-65
2022/04/24 08:50:03;;;;;;;5.93;3.30;;;23.00;66.00;;;;;;5119792;27;20051;-66
2022/04/24 08:52:29;;;;;;;7.50;2.80;;;22.90;65.60;;;;;;5136811;27;20540;-67
2022/04/24 08:54:56;;;;;;;7.15;3.00;;;23.10;66.00;;;;;;5139382;27;20042;-67
2022/04/24 08:57:27;;;;;;;6.80;2.70;;;23.00;66.00;;;;;;5157285;27;20102;-67
2022/04/24 08:59:57;;;;;;;8.55;3.40;;;22.90;65.10;;;;;;5174108;27;20038;-66
2022/04/24 09:02:22;;;;;;;8.07;3.35;;;22.70;68.40;;;;;;5175049;27;20046;-69
2022/04/24 09:04:48;;;;;;;9.88;2.70;;;22.80;65.70;;;;;;5140255;27;20406;-67
2022/04/24 09:07:17;;;;;;;6.97;3.28;;;22.90;65.70;;;;;;5139780;27;20089;-65
2022/04/24 09:09:51;;;;;;;7.50;2.90;;;23.10;68.90;;;;;;5158463;27;20093;-64
2022/04/24 09:12:17;;;;;;;7.70;2.88;;;22.90;64.80;;;;;;5139241;27;20053;-63
2022/04/24 09:14:52;;;;;;;9.68;3.88;;;22.70;66.00;;;;;;5153541;27;20573;-69
2022/04/24 09:17:20;;;;;;;8.98;3.17;;;22.90;69.30;;;;;;5105935;27;20121;-69
2022/04/24 09:19:46;;;;;;;7.32;3.40;;;22.80;66.60;;;;;;5140039;27;20050;-68
2022/04/24 09:22:12;;;;;;;9.35;3.03;;;22.70;66.50;;;;;;5155485;27;20050;-66
2022/04/24 09:24:44;;;;;;;7.95;3.75;;;22.90;66.50;;;;;;5174592;27;20109;-68
2022/04/24 09:27:11;;;;;;;9.77;3.83;;;22.90;67.00;;;;;;5175858;27;20398;-69
2022/04/24 09:29:38;;;;;;;8.93;3.47;;;22.90;69.70;;;;;;5156980;27;20053;-69
2022/04/24 09:32:11;;;;;;;6.22;3.10;;;22.70;67.00;;;;;;5160113;27;20088;-68
2022/04/24 09:34:37;;;;;;;9.65;3.10;;;22.70;69.50;;;;;;5138734;27;20053;-65
2022/04/24 09:37:04;;;;;;;8.23;3.53;;;22.70;66.50;;;;;;5161413;27;20046;-69
2022/04/24 09:39:31;;;;;;;6.93;3.35;;;22.70;67.00;;;;;;5161217;27;20075;-65
2022/04/24 09:42:07;;;;;;;7.25;3.45;;;22.50;69.60;;;;;;5161727;27;20034;-62
2022/04/24 09:44:37;;;;;;;6.80;2.90;;;22.70;70.00;;;;;;5141320;27;20054;-62
2022/04/24 09:47:05;;;;;;;8.40;3.42;;;22.70;70.00;;;;;;5140213;27;20061;-64
2022/04/24 09:49:41;;;;;;;6.88;3.25;;;22.50;70.00;;;;;;5145010;27;20383;-65
2022/04/24 09:52:12;;;;;;;8.15;3.58;;;22.60;69.90;;;;;;5142918;27;20117;-69
2022/04/24 09:54:43;;;;;;;8.05;3.00;;;22.50;69.90;;;;;;5180799;27;20131;-69
2022/04/24 09:57:09;;;;;;;5.72;2.80;;;22.40;70.10;;;;;;5157643;27;20149;-67
2022/04/24 09:59:37;;;;;;;5.93;2.90;;;22.50;70.20;;;;;;5116104;27;20087;-68
2022/04/24 10:02:03;;;;;;;7.63;3.13;;;22.50;70.40;;;;;;5138161;27;20494;-67
2022/04/24 10:04:29;;;;;;;6.43;3.00;;;22.40;67.70;;;;;;5143424;27;20053;-70
2022/04/24 10:06:55;;;;;;;6.72;2.63;;;22.30;67.30;;;;;;5180091;27;20046;-66
2022/04/24 10:09:21;;;;;;;6.72;2.90;;;22.40;67.40;;;;;;5125100;27;20050;-68
2022/04/24 10:11:47;;;;;;;7.85;3.15;;;22.20;70.50;;;;;;5142621;27;20473;-67
2022/04/24 10:14:14;;;;;;;6.05;3.10;;;22.30;70.70;;;;;;5142693;27;20042;-67
2022/04/24 10:16:57;;;;;;;5.57;2.88;;;22.20;68.00;;;;;;5143264;27;20110;-66
2022/04/24 10:19:44;;;;;;;6.07;2.70;;;22.20;67.20;;;;;;5159712;27;20122;-69
2022/04/24 10:22:39;;;;;;;5.57;2.80;;;22.00;67.10;;;;;;5160117;27;20042;-67
2022/04/24 10:25:05;;;;;;;8.75;3.13;;;22.20;69.00;;;;;;5144318;27;20058;-66
2022/04/24 10:27:38;;;;;;;10.05;3.05;;;21.90;67.90;;;;;;5143010;27;20041;-68
2022/04/24 10:30:05;;;;;;;5.80;2.70;;;22.00;71.80;;;;;;5158444;27;20500;-66
2022/04/24 10:32:30;;;;;;;7.60;2.75;;;21.90;71.30;;;;;;5159622;27;20115;-67
2022/04/24 10:34:57;;;;;;;5.22;2.25;;;21.80;71.10;;;;;;5158855;27;20061;-66
2022/04/24 10:37:30;;;;;;;5.40;2.67;;;22.00;71.60;;;;;;5142337;27;20045;-67
2022/04/24 10:39:57;;;;;;;5.55;2.65;;;22.00;71.20;;;;;;5140654;27;20049;-70
2022/04/24 10:42:33;;;;;;;7.00;2.63;;;21.70;68.70;;;;;;5178892;27;20043;-65
2022/04/24 10:45:16;;;;;;;5.75;2.90;;;21.80;71.60;;;;;;5140113;27;20046;-65
2022/04/24 10:47:48;;;;;;;5.20;2.70;;;21.60;71.70;;;;;;5118718;27;20056;-66
2022/04/24 10:50:18;;;;;;;7.25;2.92;;;21.90;71.60;;;;;;5156431;27;20086;-67
2022/04/24 10:52:44;;;;;;;7.03;3.05;;;21.80;68.80;;;;;;5130857;27;20046;-65
2022/04/24 10:55:17;;;;;;;6.50;2.90;;;21.60;71.40;;;;;;5139443;27;20114;-65
2022/04/24 10:57:44;;;;;;;5.28;2.67;;;21.70;71.70;;;;;;5138935;27;20129;-65
2022/04/24 11:00:16;;;;;;;6.25;2.85;;;21.70;71.50;;;;;;5149267;27;20034;-65
2022/04/24 11:02:41;;;;;;;5.57;2.60;;;21.80;71.80;;;;;;5157776;27;20084;-67
2022/04/24 11:05:08;;;;;;;6.07;2.88;;;21.80;71.40;;;;;;5159775;27;20065;-66
2022/04/24 11:07:34;;;;;;;6.05;3.15;;;21.60;71.40;;;;;;5159907;27;20046;-66
2022/04/24 11:10:01;;;;;;;7.75;2.78;;;21.70;71.30;;;;;;5159223;27;20038;-65
2022/04/24 11:12:33;;;;;;;6.07;2.60;;;21.70;71.10;;;;;;5177842;27;20034;-65
2022/04/24 11:15:07;;;;;;;16.40;2.83;;;21.80;68.90;;;;;;5178062;27;20118;-67
2022/04/24 11:17:33;;;;;;;5.53;2.92;;;21.80;71.40;;;;;;5125536;27;20424;-66
2022/04/24 11:20:00;;;;;;;5.40;2.45;;;21.70;68.60;;;;;;5159591;27;20045;-65
2022/04/24 11:22:26;;;;;;;6.75;2.78;;;21.70;71.20;;;;;;5177508;27;20046;-65
2022/04/24 11:24:55;;;;;;;6.78;2.90;;;21.80;68.40;;;;;;5159733;27;20042;-65
2022/04/24 11:27:25;;;;;;;5.45;2.70;;;21.60;68.10;;;;;;5158970;27;20050;-66
2022/04/24 11:29:50;;;;;;;5.85;2.95;;;21.70;68.70;;;;;;5159197;27;20042;-65
2022/04/24 11:32:18;;;;;;;5.97;2.60;;;21.70;68.30;;;;;;5158158;27;20065;-65
2022/04/24 11:34:44;;;;;;;5.20;2.65;;;21.60;71.20;;;;;;5158074;27;20483;-65
2022/04/24 11:37:10;;;;;;;7.05;2.95;;;21.40;68.00;;;;;;5159037;27;20049;-65
2022/04/24 11:39:38;;;;;;;6.95;2.70;;;21.60;69.80;;;;;;5177946;27;20053;-64
2022/04/24 11:42:04;;;;;;;4.68;2.70;;;21.50;70.90;;;;;;5177702;27;20182;-66
2022/04/24 11:50:14;;;;;;;6.43;3.25;;;21.70;67.20;;;;;;5156869;27;20506;-63
2022/04/24 11:52:47;;;;;;;7.07;3.17;;;21.60;71.00;;;;;;5139735;27;20050;-63
2022/04/24 11:55:23;;;;;;;5.40;3.10;;;21.70;68.80;;;;;;5157806;27;20045;-65
2022/04/24 11:57:56;;;;;;;6.13;2.42;;;21.40;68.80;;;;;;5158970;27;20038;-64
2022/04/24 12:00:36;;;;;;;6.00;2.90;;;21.50;71.10;;;;;;5177371;27;20057;-66
2022/04/24 12:03:01;;;;;;;5.35;3.10;;;21.50;71.20;;;;;;5160500;27;20038;-64
2022/04/24 12:05:28;;;;;;;5.82;2.72;;;21.70;71.50;;;;;;5157392;27;20142;-63
2022/04/24 12:07:58;;;;;;;6.80;2.90;;;21.80;68.80;;;;;;5141288;27;20057;-64
2022/04/24 12:10:24;;;;;;;4.75;2.58;;;21.40;71.20;;;;;;5141371;27;20046;-64
2022/04/24 12:12:51;;;;;;;6.15;3.13;;;21.50;68.60;;;;;;5141143;27;20050;-63
2022/04/24 12:15:21;;;;;;;4.97;2.70;;;21.70;71.50;;;;;;5157903;27;20067;-64
2022/04/24 12:17:51;;;;;;;7.00;2.88;;;21.60;68.90;;;;;;5157470;27;20057;-66
2022/04/24 12:20:16;;;;;;;5.30;2.85;;;21.60;71.30;;;;;;5141181;27;20454;-63
2022/04/24 12:22:42;;;;;;;6.05;2.83;;;21.50;71.40;;;;;;5177053;27;20129;-62
2022/04/24 12:25:10;;;;;;;6.22;2.95;;;21.30;68.10;;;;;;5157737;27;20034;-64
2022/04/24 12:27:36;;;;;;;6.25;2.95;;;;;;;;;;5140314;27;20356;-64
2022/04/24 12:30:06;;;;;;;5.07;2.88;;;21.40;71.40;;;;;;5176981;27;20109;-63
2022/04/24 12:32:34;;;;;;;5.95;2.88;;;21.50;71.50;;;;;;5157496;27;20058;-62
2022/04/24 12:35:00;;;;;;;4.80;2.70;;;21.80;71.90;;;;;;5158349;27;20050;-63
2022/04/24 12:37:33;;;;;;;5.90;2.60;;;21.70;71.60;;;;;;5140376;27;20039;-62
2022/04/24 12:39:59;;;;;;;8.32;3.00;;;21.70;71.70;;;;;;5140388;27;20046;-63
2022/04/24 12:42:25;;;;;;;5.05;2.70;;;21.50;71.60;;;;;;5158785;27;20125;-64
2022/04/24 12:44:52;;;;;;;6.57;3.47;;;21.50;71.70;;;;;;5157766;27;20066;-63
2022/04/24 12:47:19;;;;;;;5.25;2.85;;;21.60;68.80;;;;;;5157878;27;20502;-62
2022/04/24 12:49:44;;;;;;;5.93;2.80;;;21.50;71.40;;;;;;5175896;27;20057;-63
2022/04/24 12:52:11;;;;;;;4.63;2.65;;;21.80;71.70;;;;;;5176173;27;20038;-62